Time;durP1;ratioP1;P1;durP2;ratioP2;P2;SDS_P1;SDS_P2;PMS_P1;PMS_P2;Temp;Humidity;BMP_temperature;BMP_pressure;BME280_temperature;BME280_humidity;BME280_pressure;Samples;Min_cycle;Max_cycle;Signal;HPM_P1;HPM_P2
2024/04/14 00:01:33;;;;;;;0.37;0.37;;;17.50;99.90;;;;;;4437406;32;20118;-64
2024/04/14 00:04:00;;;;;;;0.70;0.70;;;17.50;99.90;;;;;;4439828;32;20076;-64
2024/04/14 00:06:26;;;;;;;0.30;0.30;;;17.40;99.90;;;;;;4437127;32;20123;-64
2024/04/14 00:08:52;;;;;;;0.40;0.40;;;17.30;99.90;;;;;;4436887;32;20642;-65
2024/04/14 00:11:19;;;;;;;0.30;0.30;;;17.30;99.90;;;;;;4426609;32;20493;-64
2024/04/14 00:13:44;;;;;;;0.40;0.40;;;17.30;99.90;;;;;;4426721;32;20102;-64
2024/04/14 00:16:12;;;;;;;0.30;0.30;;;17.30;99.90;;;;;;4429194;32;20073;-64
2024/04/14 00:18:37;;;;;;;0.50;0.50;;;17.30;99.90;;;;;;4437656;32;20085;-64
2024/04/14 00:21:03;;;;;;;0.30;0.30;;;17.30;99.90;;;;;;4437856;32;20564;-64
2024/04/14 00:23:28;;;;;;;0.55;0.55;;;17.40;99.90;;;;;;4439873;32;20085;-65
2024/04/14 00:25:54;;;;;;;0.43;0.43;;;17.30;99.90;;;;;;4439237;32;20088;-64
2024/04/14 00:28:20;;;;;;;0.40;0.40;;;17.30;99.90;;;;;;4440406;32;20566;-64
2024/04/14 00:30:45;;;;;;;0.50;0.50;;;17.30;99.90;;;;;;4439123;32;20112;-64
2024/04/14 00:33:11;;;;;;;0.43;0.40;;;17.40;99.90;;;;;;4438231;32;20093;-64
2024/04/14 00:35:37;;;;;;;0.40;0.40;;;17.40;99.90;;;;;;4437656;32;20069;-64
2024/04/14 00:38:03;;;;;;;0.40;0.40;;;17.40;99.90;;;;;;4437797;32;20070;-64
2024/04/14 00:40:28;;;;;;;0.40;0.40;;;17.40;99.90;;;;;;4436744;32;20126;-65
2024/04/14 00:42:56;;;;;;;0.43;0.43;;;17.30;99.90;;;;;;4437068;32;20493;-65
2024/04/14 00:45:22;;;;;;;0.47;0.47;;;17.30;99.90;;;;;;4436835;32;20077;-64
2024/04/14 00:47:48;;;;;;;0.65;0.57;;;17.30;99.90;;;;;;4429716;32;20103;-65
2024/04/14 00:50:16;;;;;;;0.30;0.30;;;17.30;99.90;;;;;;4437132;32;20084;-65
2024/04/14 00:52:42;;;;;;;0.40;0.40;;;17.30;99.90;;;;;;4429106;32;20139;-65
2024/04/14 00:55:08;;;;;;;0.32;0.32;;;17.20;99.90;;;;;;4439269;32;20088;-65
2024/04/14 00:57:34;;;;;;;0.40;0.40;;;17.20;99.90;;;;;;4434221;32;20157;-65
2024/04/14 01:00:01;;;;;;;0.40;0.40;;;17.20;99.90;;;;;;4428239;32;20548;-65
2024/04/14 01:02:27;;;;;;;0.40;0.40;;;17.20;99.90;;;;;;4439680;32;20084;-65
2024/04/14 01:04:53;;;;;;;0.43;0.43;;;17.30;99.90;;;;;;4437778;32;20069;-65
2024/04/14 01:07:19;;;;;;;0.30;0.30;;;17.20;99.90;;;;;;4436438;32;20838;-65
2024/04/14 01:09:45;;;;;;;0.32;0.32;;;17.30;99.90;;;;;;4427152;32;20076;-65
2024/04/14 01:12:11;;;;;;;0.47;0.47;;;17.20;99.90;;;;;;4437982;32;20520;-65
2024/04/14 01:14:36;;;;;;;0.50;0.50;;;17.20;99.90;;;;;;4437033;32;20093;-65
2024/04/14 01:17:02;;;;;;;0.30;0.30;;;17.20;99.90;;;;;;4438725;32;20069;-65
2024/04/14 01:19:28;;;;;;;0.50;0.50;;;17.20;99.90;;;;;;4437815;32;20077;-64
2024/04/14 01:21:54;;;;;;;0.32;0.32;;;17.30;99.90;;;;;;4437187;32;20088;-65
2024/04/14 01:24:20;;;;;;;0.40;0.40;;;17.30;99.90;;;;;;4438547;32;20077;-65
2024/04/14 01:26:45;;;;;;;0.40;0.40;;;17.30;99.90;;;;;;4438983;32;20536;-65
2024/04/14 01:29:12;;;;;;;0.30;0.30;;;17.30;99.90;;;;;;4436614;32;20116;-65
2024/04/14 01:31:37;;;;;;;1.17;0.50;;;17.20;99.90;;;;;;4437861;32;20076;-65
2024/04/14 01:34:03;;;;;;;0.50;0.50;;;17.20;99.90;;;;;;4437354;32;20072;-65
2024/04/14 01:36:28;;;;;;;0.60;0.55;;;17.20;99.90;;;;;;4437584;32;20520;-65
2024/04/14 01:38:54;;;;;;;0.88;0.62;;;17.10;99.90;;;;;;4435797;32;20224;-65
2024/04/14 01:41:20;;;;;;;0.35;0.35;;;17.20;99.90;;;;;;4438417;32;20085;-64
2024/04/14 01:43:46;;;;;;;0.30;0.30;;;17.20;99.90;;;;;;4437310;32;20061;-65
2024/04/14 01:46:11;;;;;;;0.57;0.57;;;17.20;99.90;;;;;;4436778;32;20061;-65
2024/04/14 01:48:37;;;;;;;0.32;0.32;;;17.20;99.90;;;;;;4428671;32;20057;-65
2024/04/14 01:51:03;;;;;;;0.88;0.57;;;17.20;99.90;;;;;;4436395;32;20579;-64
2024/04/14 01:53:29;;;;;;;0.37;0.37;;;17.20;99.90;;;;;;4436007;32;20449;-64
2024/04/14 01:55:55;;;;;;;0.30;0.30;;;17.20;99.90;;;;;;4436702;32;20521;-64
2024/04/14 01:58:20;;;;;;;0.35;0.35;;;17.20;99.90;;;;;;4439286;32;20073;-64
2024/04/14 02:00:47;;;;;;;0.40;0.40;;;17.20;99.90;;;;;;4437338;32;20122;-64
2024/04/14 02:03:12;;;;;;;0.50;0.50;;;17.10;99.90;;;;;;4438556;32;20086;-65
2024/04/14 02:05:38;;;;;;;0.40;0.40;;;17.20;99.90;;;;;;4436158;32;20111;-64
2024/04/14 02:08:04;;;;;;;0.88;0.60;;;17.20;99.90;;;;;;4437737;32;20089;-64
2024/04/14 02:10:30;;;;;;;2.80;1.05;;;17.20;99.90;;;;;;4429384;32;20555;-64
2024/04/14 02:12:55;;;;;;;0.30;0.30;;;17.10;99.90;;;;;;4426857;32;20069;-64
2024/04/14 02:15:21;;;;;;;0.40;0.40;;;17.10;99.90;;;;;;4437857;32;20084;-64
2024/04/14 02:17:47;;;;;;;1.27;0.50;;;17.20;99.90;;;;;;4435250;32;20163;-65
2024/04/14 02:20:12;;;;;;;0.30;0.30;;;17.10;99.90;;;;;;4437520;32;20307;-64
2024/04/14 02:22:38;;;;;;;0.32;0.32;;;17.10;99.90;;;;;;4438175;32;20156;-64
2024/04/14 02:25:04;;;;;;;0.40;0.40;;;17.10;99.90;;;;;;4439198;32;20082;-64
2024/04/14 02:27:29;;;;;;;0.20;0.20;;;17.00;99.90;;;;;;4429491;32;20073;-64
2024/04/14 02:29:55;;;;;;;0.60;0.60;;;17.00;99.90;;;;;;4439191;32;20069;-65
2024/04/14 02:32:21;;;;;;;1.10;0.50;;;17.10;99.90;;;;;;4438733;32;20182;-64
2024/04/14 02:34:46;;;;;;;0.40;0.40;;;17.10;99.90;;;;;;4427140;32;20393;-64
2024/04/14 02:37:12;;;;;;;9.52;2.53;;;17.10;99.90;;;;;;4440415;32;20065;-64
2024/04/14 02:39:38;;;;;;;0.85;0.50;;;17.00;99.90;;;;;;4439153;32;20080;-65
2024/04/14 02:42:03;;;;;;;0.35;0.35;;;17.00;99.90;;;;;;4429774;32;20076;-65
2024/04/14 02:44:29;;;;;;;0.52;0.40;;;17.00;99.90;;;;;;4440149;32;20094;-64
2024/04/14 02:46:54;;;;;;;2.08;0.85;;;17.00;99.90;;;;;;4438864;32;20464;-64
2024/04/14 02:49:20;;;;;;;0.35;0.35;;;17.00;99.90;;;;;;4435930;32;20065;-64
2024/04/14 02:51:46;;;;;;;4.18;1.45;;;17.00;99.90;;;;;;4436515;32;20131;-63
2024/04/14 02:54:11;;;;;;;0.50;0.50;;;17.10;99.90;;;;;;4440015;32;20610;-63
2024/04/14 02:56:37;;;;;;;0.30;0.30;;;17.10;99.90;;;;;;4438409;32;20081;-63
2024/04/14 02:59:03;;;;;;;0.40;0.40;;;17.20;99.90;;;;;;4439524;32;20524;-63
2024/04/14 03:01:28;;;;;;;0.28;0.28;;;17.20;99.90;;;;;;4440936;32;20061;-65
2024/04/14 03:03:54;;;;;;;0.50;0.50;;;17.20;99.90;;;;;;4432706;32;20076;-65
2024/04/14 03:06:19;;;;;;;0.65;0.65;;;17.30;99.90;;;;;;4428576;32;20058;-65
2024/04/14 03:08:45;;;;;;;0.40;0.40;;;17.30;99.90;;;;;;4438676;32;20076;-65
2024/04/14 03:11:10;;;;;;;0.45;0.45;;;17.30;99.90;;;;;;4441917;32;20508;-63
2024/04/14 03:13:36;;;;;;;11.32;2.37;;;17.30;99.90;;;;;;4439010;32;20100;-63
2024/04/14 03:16:03;;;;;;;0.37;0.37;;;17.40;99.90;;;;;;4429801;32;20085;-63
2024/04/14 03:18:29;;;;;;;0.30;0.30;;;17.40;99.90;;;;;;4427634;32;20073;-63
2024/04/14 03:20:57;;;;;;;5.78;0.95;;;17.40;99.90;;;;;;4433396;32;20068;-63
2024/04/14 03:23:23;;;;;;;0.57;0.45;;;17.40;99.90;;;;;;4438511;32;20613;-63
2024/04/14 03:25:49;;;;;;;0.40;0.40;;;17.30;99.90;;;;;;4440012;32;20126;-63
2024/04/14 03:28:15;;;;;;;0.57;0.40;;;17.30;99.90;;;;;;4439971;32;20080;-63
2024/04/14 03:30:40;;;;;;;0.30;0.30;;;17.30;99.90;;;;;;4439245;32;20061;-63
2024/04/14 03:33:06;;;;;;;0.40;0.40;;;17.30;99.90;;;;;;4430524;32;20123;-63
2024/04/14 03:35:31;;;;;;;0.40;0.40;;;17.30;99.90;;;;;;4439407;32;20077;-63
2024/04/14 03:37:57;;;;;;;0.50;0.50;;;17.30;99.90;;;;;;4439537;32;20135;-63
2024/04/14 03:40:23;;;;;;;0.37;0.37;;;17.30;99.90;;;;;;4441155;32;20069;-63
2024/04/14 03:42:49;;;;;;;0.40;0.40;;;17.30;99.90;;;;;;4438644;32;20081;-63
2024/04/14 03:45:18;;;;;;;0.40;0.40;;;17.30;99.90;;;;;;4438346;32;20578;-63
2024/04/14 03:47:44;;;;;;;0.40;0.40;;;17.20;99.90;;;;;;4439202;32;20521;-63
2024/04/14 03:50:09;;;;;;;0.47;0.47;;;17.20;99.90;;;;;;4437838;32;20108;-62
2024/04/14 03:52:35;;;;;;;5.12;0.75;;;17.20;99.90;;;;;;4437922;32;20172;-63
2024/04/14 03:55:00;;;;;;;0.47;0.47;;;17.20;99.90;;;;;;4432203;32;20087;-63
2024/04/14 03:57:26;;;;;;;0.70;0.68;;;17.20;99.90;;;;;;4428706;32;20129;-62
2024/04/14 03:59:52;;;;;;;0.40;0.40;;;17.30;99.90;;;;;;4428794;32;20119;-62
2024/04/14 04:02:17;;;;;;;0.40;0.40;;;17.20;99.90;;;;;;4433794;32;20069;-63
2024/04/14 04:04:43;;;;;;;0.40;0.40;;;17.20;99.90;;;;;;4428507;32;20163;-63
2024/04/14 04:07:08;;;;;;;0.73;0.73;;;17.30;99.90;;;;;;4431334;32;20085;-63
2024/04/14 04:09:34;;;;;;;0.50;0.50;;;17.30;99.90;;;;;;4426581;32;20105;-62
2024/04/14 04:11:59;;;;;;;0.40;0.40;;;17.20;99.90;;;;;;4431998;32;20134;-63
2024/04/14 04:14:25;;;;;;;0.40;0.40;;;17.20;99.90;;;;;;4429267;32;20098;-63
2024/04/14 04:16:51;;;;;;;0.45;0.45;;;17.20;99.90;;;;;;4431817;32;20077;-62
2024/04/14 04:19:16;;;;;;;0.40;0.40;;;17.20;99.90;;;;;;4429695;32;20102;-62
2024/04/14 04:21:42;;;;;;;0.50;0.50;;;17.20;99.90;;;;;;4433446;32;20092;-64
2024/04/14 04:24:07;;;;;;;1.20;0.55;;;17.20;99.90;;;;;;4430908;32;20065;-63
2024/04/14 04:26:33;;;;;;;0.30;0.30;;;17.20;99.90;;;;;;4428762;32;20128;-64
2024/04/14 04:28:58;;;;;;;0.57;0.57;;;17.20;99.90;;;;;;4428071;32;20756;-64
2024/04/14 04:31:24;;;;;;;0.52;0.52;;;17.20;99.90;;;;;;4431108;32;20076;-63
2024/04/14 04:33:50;;;;;;;0.50;0.50;;;17.20;99.90;;;;;;4427382;32;20077;-63
2024/04/14 04:36:17;;;;;;;0.40;0.40;;;17.10;99.90;;;;;;4428432;32;20077;-63
2024/04/14 04:38:43;;;;;;;0.82;0.50;;;17.10;99.90;;;;;;4433934;32;20485;-63
2024/04/14 04:41:10;;;;;;;0.50;0.50;;;17.00;99.90;;;;;;4432178;32;20576;-63
2024/04/14 04:43:37;;;;;;;0.28;0.28;;;17.00;99.90;;;;;;4431527;32;20073;-63
2024/04/14 04:46:02;;;;;;;1.08;0.55;;;17.00;99.90;;;;;;4425822;32;20081;-63
2024/04/14 04:48:28;;;;;;;0.30;0.30;;;17.00;99.90;;;;;;4432479;32;20073;-63
2024/04/14 04:50:55;;;;;;;0.40;0.40;;;16.90;99.90;;;;;;4429820;32;20080;-64
2024/04/14 04:53:21;;;;;;;0.40;0.40;;;16.90;99.90;;;;;;4433440;32;20070;-64
2024/04/14 04:55:47;;;;;;;0.50;0.50;;;16.90;99.90;;;;;;4428547;32;20521;-64
2024/04/14 04:58:14;;;;;;;0.28;0.28;;;16.90;99.90;;;;;;4431524;32;20088;-63
2024/04/14 05:00:40;;;;;;;0.62;0.60;;;16.90;99.90;;;;;;4430908;32;20166;-64
2024/04/14 05:03:05;;;;;;;0.40;0.40;;;16.80;99.90;;;;;;4428187;32;20082;-63
2024/04/14 05:05:31;;;;;;;0.30;0.30;;;16.80;99.90;;;;;;4414280;32;20890;-64
2024/04/14 05:07:57;;;;;;;0.50;0.50;;;16.80;99.90;;;;;;4438339;32;20084;-63
2024/04/14 05:10:22;;;;;;;0.35;0.35;;;16.80;99.90;;;;;;4438119;32;20561;-63
2024/04/14 05:12:48;;;;;;;0.50;0.50;;;16.80;99.90;;;;;;4415754;32;20053;-63
2024/04/14 05:15:14;;;;;;;0.70;0.60;;;16.80;99.90;;;;;;4438564;32;20081;-63
2024/04/14 05:17:39;;;;;;;0.93;0.55;;;16.80;99.90;;;;;;4437508;32;20072;-63
2024/04/14 05:20:05;;;;;;;0.95;0.75;;;16.70;99.90;;;;;;4438946;32;20069;-63
2024/04/14 05:22:31;;;;;;;0.40;0.40;;;16.70;99.90;;;;;;4440086;32;20085;-63
2024/04/14 05:24:57;;;;;;;1.08;0.50;;;16.70;99.90;;;;;;4438470;32;20115;-63
2024/04/14 05:27:22;;;;;;;0.55;0.55;;;16.60;99.90;;;;;;4437401;32;20061;-63
2024/04/14 05:29:48;;;;;;;0.30;0.30;;;16.60;99.90;;;;;;4437491;32;20142;-63
2024/04/14 05:32:15;;;;;;;0.40;0.40;;;16.60;99.90;;;;;;4439422;32;20065;-63
2024/04/14 05:34:42;;;;;;;0.30;0.30;;;16.60;99.90;;;;;;4436582;32;20089;-63
2024/04/14 05:37:08;;;;;;;2.05;1.12;;;16.50;99.90;;;;;;4438319;32;20097;-63
2024/04/14 05:39:34;;;;;;;0.30;0.30;;;16.50;99.90;;;;;;4429302;32;20073;-63
2024/04/14 05:42:00;;;;;;;1.75;1.05;;;16.40;99.90;;;;;;4429974;32;20057;-66
2024/04/14 05:44:25;;;;;;;0.22;0.22;;;16.50;99.90;;;;;;4437664;32;20100;-64
2024/04/14 05:46:51;;;;;;;0.30;0.30;;;16.40;99.90;;;;;;4429638;32;20077;-63
2024/04/14 05:49:20;;;;;;;0.50;0.50;;;16.40;99.90;;;;;;4437958;32;20097;-64
2024/04/14 05:51:47;;;;;;;1.67;0.75;;;16.40;99.90;;;;;;4435203;32;20066;-64
2024/04/14 05:54:12;;;;;;;0.47;0.47;;;16.40;99.90;;;;;;4434552;32;20097;-64
2024/04/14 05:56:38;;;;;;;0.30;0.30;;;16.40;99.90;;;;;;4432057;32;20069;-64
2024/04/14 05:59:03;;;;;;;0.43;0.43;;;16.30;99.90;;;;;;4430832;32;20080;-64
2024/04/14 06:01:29;;;;;;;0.30;0.30;;;16.30;99.90;;;;;;4434420;32;20061;-64
2024/04/14 06:03:55;;;;;;;0.40;0.40;;;16.30;99.90;;;;;;4430433;32;20080;-65
2024/04/14 06:06:21;;;;;;;0.47;0.40;;;16.30;99.90;;;;;;4434984;32;20525;-64
2024/04/14 06:08:46;;;;;;;0.40;0.40;;;16.30;99.90;;;;;;4428929;32;20089;-64
2024/04/14 06:11:12;;;;;;;0.73;0.73;;;16.20;99.90;;;;;;4429640;32;20081;-64
2024/04/14 06:13:37;;;;;;;0.40;0.40;;;16.20;99.90;;;;;;4432364;32;20076;-65
2024/04/14 06:16:03;;;;;;;2.15;0.40;;;16.20;99.90;;;;;;4430361;32;20065;-64
2024/04/14 06:18:29;;;;;;;0.40;0.40;;;16.20;99.90;;;;;;4433206;32;20132;-64
2024/04/14 06:20:54;;;;;;;6.25;0.82;;;16.20;99.90;;;;;;4432427;32;20074;-65
2024/04/14 06:23:20;;;;;;;0.68;0.68;;;16.30;99.90;;;;;;4432349;32;21355;-64
2024/04/14 06:25:46;;;;;;;3.40;1.30;;;16.30;99.90;;;;;;4431187;32;20105;-64
2024/04/14 06:28:11;;;;;;;0.60;0.60;;;16.40;99.90;;;;;;4432968;32;20473;-64
2024/04/14 06:30:37;;;;;;;2.15;0.50;;;16.40;99.90;;;;;;4429555;32;20545;-64
2024/04/14 06:33:03;;;;;;;2.70;0.90;;;16.40;99.90;;;;;;4431338;32;20415;-65
2024/04/14 06:35:30;;;;;;;0.57;0.50;;;16.30;99.90;;;;;;4431928;32;20433;-65
2024/04/14 06:37:56;;;;;;;1.73;0.73;;;16.30;99.90;;;;;;4428575;32;20066;-65
2024/04/14 06:40:21;;;;;;;0.40;0.40;;;16.30;99.90;;;;;;4430974;32;20631;-65
2024/04/14 06:42:47;;;;;;;3.47;0.98;;;16.30;99.90;;;;;;4428444;32;20081;-64
2024/04/14 06:45:13;;;;;;;0.30;0.30;;;16.30;99.90;;;;;;4432124;32;20076;-64
2024/04/14 06:47:38;;;;;;;0.30;0.30;;;16.30;99.90;;;;;;4432012;32;20120;-64
2024/04/14 06:50:05;;;;;;;1.65;0.65;;;16.20;99.90;;;;;;4430043;32;20094;-65
2024/04/14 06:52:30;;;;;;;0.40;0.40;;;16.30;99.90;;;;;;4429746;32;20085;-65
2024/04/14 06:54:56;;;;;;;20.52;0.70;;;16.30;99.90;;;;;;4437156;32;20592;-65
2024/04/14 06:57:22;;;;;;;0.40;0.40;;;16.50;99.90;;;;;;4440964;32;20084;-65
2024/04/14 06:59:47;;;;;;;0.40;0.40;;;16.50;99.90;;;;;;4440246;32;20065;-65
2024/04/14 07:02:13;;;;;;;0.30;0.30;;;16.50;99.90;;;;;;4430779;32;20093;-65
2024/04/14 07:04:38;;;;;;;0.45;0.43;;;16.50;99.90;;;;;;4438278;32;20080;-65
2024/04/14 07:07:04;;;;;;;0.80;0.60;;;16.50;99.90;;;;;;4439662;32;20468;-65
2024/04/14 07:09:29;;;;;;;0.40;0.40;;;16.40;99.90;;;;;;4430522;32;20123;-65
2024/04/14 07:11:55;;;;;;;1.27;0.77;;;16.30;99.90;;;;;;4435486;32;20165;-65
2024/04/14 07:14:21;;;;;;;4.95;1.48;;;16.20;99.90;;;;;;4436835;32;20265;-65
2024/04/14 07:16:47;;;;;;;0.30;0.30;;;16.20;99.90;;;;;;4435823;32;20172;-65
2024/04/14 07:19:12;;;;;;;0.20;0.20;;;16.10;99.90;;;;;;4436138;32;20084;-65
2024/04/14 07:21:41;;;;;;;0.65;0.65;;;16.20;99.90;;;;;;4438540;32;20143;-65
2024/04/14 07:24:07;;;;;;;0.93;0.60;;;16.20;99.90;;;;;;4437700;32;21500;-65
2024/04/14 07:26:33;;;;;;;0.40;0.40;;;16.30;99.90;;;;;;4437612;32;20132;-65
2024/04/14 07:28:59;;;;;;;0.20;0.20;;;16.40;99.90;;;;;;4428240;32;20077;-65
2024/04/14 07:31:25;;;;;;;0.30;0.30;;;16.40;99.90;;;;;;4432537;32;20080;-63
2024/04/14 07:34:00;;;;;;;1.25;0.73;;;16.50;99.90;;;;;;4430884;32;20076;-63
2024/04/14 07:36:26;;;;;;;0.52;0.52;;;16.30;99.90;;;;;;4439064;32;20065;-63
2024/04/14 07:38:51;;;;;;;0.30;0.30;;;16.30;99.90;;;;;;4425785;32;20350;-64
2024/04/14 07:41:19;;;;;;;0.37;0.37;;;16.40;99.90;;;;;;4437475;32;20516;-64
2024/04/14 07:43:45;;;;;;;0.37;0.37;;;16.50;99.90;;;;;;4426857;32;20104;-63
2024/04/14 07:46:11;;;;;;;0.35;0.35;;;16.50;99.90;;;;;;4437077;32;20477;-63
2024/04/14 07:48:36;;;;;;;0.30;0.30;;;16.40;99.90;;;;;;4437692;32;20077;-64
2024/04/14 07:51:03;;;;;;;0.30;0.30;;;16.50;99.90;;;;;;4438733;32;20133;-64
2024/04/14 07:53:28;;;;;;;0.32;0.32;;;16.60;99.90;;;;;;4438610;32;20065;-63
2024/04/14 07:55:54;;;;;;;0.30;0.30;;;16.60;99.90;;;;;;4439413;32;20073;-62
2024/04/14 07:58:21;;;;;;;0.82;0.37;;;16.70;99.90;;;;;;4438449;32;20472;-62
2024/04/14 08:00:46;;;;;;;0.40;0.40;;;16.70;99.90;;;;;;4439060;32;20122;-63
2024/04/14 08:03:12;;;;;;;0.30;0.30;;;16.70;99.90;;;;;;4438783;32;20211;-62
2024/04/14 08:05:38;;;;;;;0.80;0.80;;;16.60;99.90;;;;;;4439115;32;20504;-62
2024/04/14 08:08:04;;;;;;;0.37;0.37;;;16.60;99.90;;;;;;4438860;32;20104;-62
2024/04/14 08:10:29;;;;;;;0.40;0.40;;;16.50;99.90;;;;;;4439030;32;20147;-63
2024/04/14 08:12:55;;;;;;;2.85;1.37;;;16.70;99.90;;;;;;4439136;32;21245;-63
2024/04/14 08:15:20;;;;;;;0.45;0.45;;;16.70;99.90;;;;;;4436687;32;20089;-62
2024/04/14 08:17:46;;;;;;;0.62;0.50;;;16.70;99.90;;;;;;4437773;32;20061;-63
2024/04/14 08:20:11;;;;;;;0.30;0.30;;;16.70;99.90;;;;;;4438208;32;20744;-64
2024/04/14 08:22:37;;;;;;;0.30;0.30;;;16.70;99.90;;;;;;4427555;32;20167;-64
2024/04/14 08:25:03;;;;;;;1.02;0.75;;;16.80;99.90;;;;;;4438254;32;20086;-64
2024/04/14 08:27:28;;;;;;;0.30;0.30;;;16.80;99.90;;;;;;4438122;32;20176;-66
2024/04/14 08:29:54;;;;;;;0.30;0.30;;;16.90;99.90;;;;;;4439440;32;20069;-63
2024/04/14 08:32:20;;;;;;;0.30;0.30;;;16.90;99.90;;;;;;4439055;32;20100;-64
2024/04/14 08:34:45;;;;;;;0.40;0.40;;;16.80;99.90;;;;;;4437806;32;20103;-63
2024/04/14 08:37:11;;;;;;;0.30;0.30;;;16.70;99.90;;;;;;4440298;32;20172;-64
2024/04/14 08:39:37;;;;;;;0.40;0.40;;;16.80;99.90;;;;;;4437746;32;20069;-64
2024/04/14 08:42:05;;;;;;;0.60;0.60;;;16.80;99.90;;;;;;4437236;32;20826;-64
2024/04/14 08:44:33;;;;;;;1.98;0.70;;;16.80;99.90;;;;;;4438315;32;20094;-62
2024/04/14 08:47:00;;;;;;;0.30;0.30;;;16.80;99.90;;;;;;4438285;32;20085;-63
2024/04/14 08:49:28;;;;;;;0.70;0.70;;;16.80;99.90;;;;;;4435377;32;20076;-63
2024/04/14 08:51:55;;;;;;;0.30;0.30;;;16.70;99.90;;;;;;4435526;32;20077;-65
2024/04/14 08:54:21;;;;;;;1.80;1.10;;;16.70;99.90;;;;;;4437054;32;20077;-64
2024/04/14 08:56:53;;;;;;;0.30;0.30;;;16.70;99.90;;;;;;4436509;32;20093;-65
2024/04/14 08:59:21;;;;;;;0.32;0.32;;;16.60;99.90;;;;;;4437432;32;20073;-65
2024/04/14 09:01:48;;;;;;;0.40;0.40;;;16.60;99.90;;;;;;4430218;32;20077;-65
2024/04/14 09:04:15;;;;;;;0.40;0.40;;;16.60;99.90;;;;;;4437225;32;20068;-65
2024/04/14 09:06:42;;;;;;;0.30;0.30;;;16.50;99.90;;;;;;4432338;32;20138;-65
2024/04/14 09:09:08;;;;;;;0.52;0.40;;;16.60;99.90;;;;;;4438473;32;20096;-65
2024/04/14 09:11:35;;;;;;;1.33;0.68;;;16.70;99.90;;;;;;4429471;32;20544;-66
2024/04/14 09:14:00;;;;;;;0.30;0.30;;;16.80;99.90;;;;;;4435420;32;20195;-65
2024/04/14 09:16:26;;;;;;;0.60;0.60;;;16.90;99.90;;;;;;4436782;32;20077;-66
2024/04/14 09:18:53;;;;;;;0.37;0.37;;;17.10;99.90;;;;;;4440298;32;20068;-65
2024/04/14 09:21:18;;;;;;;0.40;0.40;;;17.30;99.90;;;;;;4439152;32;20072;-66
2024/04/14 09:23:44;;;;;;;0.30;0.30;;;17.40;99.90;;;;;;4436919;32;20072;-65
2024/04/14 09:26:09;;;;;;;0.40;0.40;;;17.30;99.90;;;;;;4437292;32;20097;-65
2024/04/14 09:28:35;;;;;;;0.30;0.30;;;17.30;99.90;;;;;;4436296;32;20073;-66
2024/04/14 09:31:01;;;;;;;0.30;0.30;;;17.10;99.90;;;;;;4436748;32;20076;-63
2024/04/14 09:33:27;;;;;;;0.60;0.60;;;16.90;99.90;;;;;;4437335;32;20426;-65
2024/04/14 09:35:53;;;;;;;0.32;0.32;;;16.80;99.90;;;;;;4440335;32;20125;-67
2024/04/14 09:38:19;;;;;;;0.40;0.40;;;16.90;99.90;;;;;;4438249;32;20523;-66
2024/04/14 09:40:44;;;;;;;0.30;0.30;;;17.00;99.90;;;;;;4430375;32;20077;-64
2024/04/14 09:43:11;;;;;;;0.40;0.40;;;17.10;99.90;;;;;;4430030;32;20081;-64
2024/04/14 09:45:37;;;;;;;0.20;0.20;;;17.10;99.90;;;;;;4437848;32;20562;-65
2024/04/14 09:48:05;;;;;;;0.40;0.40;;;17.00;99.90;;;;;;4432057;32;20147;-64
2024/04/14 09:50:31;;;;;;;0.62;0.62;;;17.00;99.90;;;;;;4429378;32;20073;-65
2024/04/14 09:52:57;;;;;;;0.37;0.37;;;17.00;99.90;;;;;;4436635;32;20346;-64
2024/04/14 09:55:23;;;;;;;0.40;0.40;;;17.10;99.90;;;;;;4438883;32;20536;-64
2024/04/14 09:57:49;;;;;;;0.30;0.30;;;17.10;99.90;;;;;;4438388;32;20532;-64
2024/04/14 10:00:16;;;;;;;0.30;0.30;;;17.20;99.90;;;;;;4436815;32;20119;-65
2024/04/14 10:02:50;;;;;;;0.30;0.30;;;17.20;99.90;;;;;;4438852;32;20077;-67
2024/04/14 10:05:17;;;;;;;0.40;0.40;;;17.10;99.90;;;;;;4427481;32;20543;-65
2024/04/14 10:07:43;;;;;;;2.17;1.27;;;16.90;99.30;;;;;;4439134;32;20547;-66
2024/04/14 10:10:10;;;;;;;10.77;1.95;;;16.80;99.20;;;;;;4437061;32;20090;-65
2024/04/14 10:12:37;;;;;;;0.30;0.30;;;16.70;99.50;;;;;;4429636;32;20512;-65
2024/04/14 10:15:04;;;;;;;0.28;0.28;;;16.80;99.70;;;;;;4428902;32;20544;-65
2024/04/14 10:17:30;;;;;;;1.65;0.73;;;16.90;99.70;;;;;;4437022;32;20564;-65
2024/04/14 10:19:57;;;;;;;0.22;0.22;;;16.90;99.60;;;;;;4436613;32;20119;-66
2024/04/14 10:22:34;;;;;;;0.57;0.57;;;16.90;99.90;;;;;;4429141;32;20116;-65
2024/04/14 10:25:00;;;;;;;0.30;0.30;;;16.80;99.90;;;;;;4437641;32;20073;-65
2024/04/14 10:27:29;;;;;;;0.30;0.30;;;16.80;99.90;;;;;;4439683;32;20064;-65
2024/04/14 10:29:57;;;;;;;0.30;0.30;;;16.80;99.90;;;;;;4429566;32;20472;-65
2024/04/14 10:32:22;;;;;;;1.35;0.82;;;16.90;99.90;;;;;;4429273;32;20061;-65
2024/04/14 10:34:48;;;;;;;0.62;0.62;;;16.90;99.90;;;;;;4436778;32;21266;-67
2024/04/14 10:37:29;;;;;;;0.37;0.37;;;16.70;99.40;;;;;;4438768;32;20784;-64
2024/04/14 10:39:55;;;;;;;;;;;16.60;99.80;;;;;;4441530;32;21805;-65
2024/04/14 10:42:21;;;;;;;0.30;0.30;;;16.60;99.80;;;;;;4432425;32;19960;-65
2024/04/14 10:44:48;;;;;;;0.40;0.40;;;16.60;99.50;;;;;;4439507;32;20100;-65
2024/04/14 10:47:17;;;;;;;0.35;0.35;;;16.50;99.60;;;;;;4430841;32;20066;-65
2024/04/14 10:49:46;;;;;;;0.35;0.35;;;16.50;99.90;;;;;;4429464;32;20531;-65
2024/04/14 10:52:11;;;;;;;0.70;0.70;;;16.60;99.70;;;;;;4433558;32;20065;-65
2024/04/14 10:54:38;;;;;;;0.40;0.40;;;16.50;99.20;;;;;;4439802;32;20468;-65
2024/04/14 10:57:04;;;;;;;0.30;0.30;;;16.40;99.90;;;;;;4441031;32;20092;-65
2024/04/14 10:59:29;;;;;;;0.30;0.30;;;16.50;99.90;;;;;;4441781;32;20072;-65
2024/04/14 11:01:55;;;;;;;0.30;0.30;;;16.70;99.90;;;;;;4432320;32;20097;-64
2024/04/14 11:04:22;;;;;;;3.50;0.55;;;17.00;99.70;;;;;;4439238;32;20585;-65
2024/04/14 11:06:47;;;;;;;0.50;0.50;;;16.90;99.20;;;;;;4441043;32;20097;-65
2024/04/14 11:09:14;;;;;;;0.55;0.55;;;16.90;99.60;;;;;;4439036;32;20516;-64
2024/04/14 11:11:40;;;;;;;0.30;0.30;;;17.10;99.90;;;;;;4440089;32;21177;-65
2024/04/14 11:14:06;;;;;;;0.30;0.30;;;17.20;99.90;;;;;;4440328;32;20120;-65
2024/04/14 11:16:32;;;;;;;0.28;0.28;;;17.20;99.90;;;;;;4439633;32;20080;-65
2024/04/14 11:18:57;;;;;;;3.95;0.50;;;17.20;98.90;;;;;;4439774;32;20078;-65
2024/04/14 11:21:26;;;;;;;0.40;0.40;;;17.20;98.00;;;;;;4439530;32;20085;-65
2024/04/14 11:23:52;;;;;;;0.37;0.37;;;17.20;97.20;;;;;;4440701;32;20076;-65
2024/04/14 11:26:18;;;;;;;9.80;0.40;;;17.10;96.60;;;;;;4439174;32;20131;-64
2024/04/14 11:28:45;;;;;;;0.40;0.40;;;16.90;96.20;;;;;;4429029;32;20115;-65
2024/04/14 11:31:11;;;;;;;0.70;0.70;;;17.00;96.00;;;;;;4439403;32;20524;-64
2024/04/14 11:33:41;;;;;;;0.30;0.30;;;16.90;95.50;;;;;;4438454;32;20084;-65
2024/04/14 11:36:10;;;;;;;0.32;0.32;;;16.80;95.20;;;;;;4428593;32;20177;-64
2024/04/14 11:38:37;;;;;;;0.30;0.30;;;16.70;95.40;;;;;;4438927;32;20135;-64
2024/04/14 11:41:03;;;;;;;0.45;0.45;;;16.80;95.50;;;;;;4429821;32;20061;-64
2024/04/14 11:43:30;;;;;;;0.40;0.40;;;16.70;95.40;;;;;;4437714;32;20089;-64
2024/04/14 11:45:56;;;;;;;0.20;0.20;;;17.00;95.70;;;;;;4439723;32;20488;-65
2024/04/14 11:48:24;;;;;;;0.65;0.65;;;17.30;94.70;;;;;;4426970;32;20126;-65
2024/04/14 11:50:51;;;;;;;0.30;0.30;;;17.50;93.60;;;;;;4439117;32;20131;-64
2024/04/14 11:53:17;;;;;;;0.30;0.30;;;17.80;94.30;;;;;;4408476;32;220174;-65
2024/04/14 11:55:43;;;;;;;0.30;0.30;;;17.80;92.90;;;;;;4439477;32;20072;-65
2024/04/14 11:58:10;;;;;;;0.52;0.52;;;17.60;93.70;;;;;;4437257;32;20060;-64
2024/04/14 12:00:35;;;;;;;0.60;0.60;;;17.60;94.20;;;;;;4438876;32;20430;-65
2024/04/14 12:03:01;;;;;;;0.30;0.30;;;17.80;94.60;;;;;;4438451;32;20068;-65
2024/04/14 12:05:27;;;;;;;0.30;0.30;;;17.70;94.90;;;;;;4436998;32;20084;-65
2024/04/14 12:07:52;;;;;;;0.30;0.30;;;17.90;95.20;;;;;;4438080;32;20076;-65
2024/04/14 12:10:18;;;;;;;0.30;0.30;;;18.00;94.50;;;;;;4437167;32;20066;-64
2024/04/14 12:12:44;;;;;;;0.30;0.30;;;17.90;94.10;;;;;;4430093;32;20096;-64
2024/04/14 12:15:10;;;;;;;0.30;0.30;;;17.80;93.10;;;;;;4438183;32;20118;-62
2024/04/14 12:17:35;;;;;;;0.30;0.30;;;17.70;93.50;;;;;;4439735;32;20061;-64
2024/04/14 12:20:01;;;;;;;0.30;0.30;;;17.90;93.90;;;;;;4440336;32;20061;-63
2024/04/14 12:22:26;;;;;;;0.30;0.30;;;18.00;93.30;;;;;;4439562;32;20074;-62
2024/04/14 12:24:52;;;;;;;0.47;0.43;;;18.10;93.70;;;;;;4437969;32;20180;-63
2024/04/14 12:27:18;;;;;;;0.28;0.28;;;18.20;92.40;;;;;;4438607;32;20530;-62
2024/04/14 12:29:47;;;;;;;0.75;0.65;;;18.10;93.20;;;;;;4436898;32;20092;-63
2024/04/14 12:32:12;;;;;;;0.30;0.30;;;18.10;92.40;;;;;;4439923;32;20434;-62
2024/04/14 12:34:38;;;;;;;0.30;0.30;;;18.00;92.10;;;;;;4438376;32;20065;-66
2024/04/14 12:37:03;;;;;;;1.98;0.60;;;18.00;92.70;;;;;;4429286;32;20442;-62
2024/04/14 12:39:29;;;;;;;0.40;0.40;;;18.30;92.30;;;;;;4440831;32;20130;-63
2024/04/14 12:41:55;;;;;;;1.45;0.55;;;18.50;90.90;;;;;;4435796;32;20073;-62